sensor_id;sensor_type;location;lat;lon;timestamp;P1;durP1;ratioP1;P2;durP2;ratioP2
45338;SDS011;31071;51.478;5.710;2022-10-18T00:00:57;20.00;;;11.90;;
45338;SDS011;31071;51.478;5.710;2022-10-18T00:03:23;17.42;;;11.48;;
45338;SDS011;31071;51.478;5.710;2022-10-18T00:05:49;15.63;;;11.30;;
45338;SDS011;31071;51.478;5.710;2022-10-18T00:08:15;17.67;;;10.98;;
45338;SDS011;31071;51.478;5.710;2022-10-18T00:10:42;19.40;;;11.10;;
45338;SDS011;31071;51.478;5.710;2022-10-18T00:13:08;17.75;;;10.63;;
45338;SDS011;31071;51.478;5.710;2022-10-18T00:15:33;22.40;;;11.55;;
45338;SDS011;31071;51.478;5.710;2022-10-18T00:17:59;18.20;;;10.82;;
45338;SDS011;31071;51.478;5.710;2022-10-18T00:20:24;27.30;;;11.18;;
45338;SDS011;31071;51.478;5.710;2022-10-18T00:22:50;20.35;;;10.00;;
45338;SDS011;31071;51.478;5.710;2022-10-18T00:25:15;23.60;;;10.65;;
45338;SDS011;31071;51.478;5.710;2022-10-18T00:27:41;19.67;;;11.00;;
45338;SDS011;31071;51.478;5.710;2022-10-18T00:30:07;23.33;;;11.07;;
45338;SDS011;31071;51.478;5.710;2022-10-18T00:32:36;20.00;;;10.20;;
45338;SDS011;31071;51.478;5.710;2022-10-18T00:35:03;21.60;;;10.85;;
45338;SDS011;31071;51.478;5.710;2022-10-18T00:37:29;17.23;;;10.65;;
45338;SDS011;31071;51.478;5.710;2022-10-18T00:39:55;21.45;;;10.20;;
45338;SDS011;31071;51.478;5.710;2022-10-18T00:42:21;17.90;;;10.90;;
45338;SDS011;31071;51.478;5.710;2022-10-18T00:45:12;16.38;;;10.25;;
45338;SDS011;31071;51.478;5.710;2022-10-18T00:47:40;27.52;;;11.13;;
45338;SDS011;31071;51.478;5.710;2022-10-18T00:50:09;20.90;;;11.30;;
45338;SDS011;31071;51.478;5.710;2022-10-18T00:52:40;20.05;;;11.10;;
45338;SDS011;31071;51.478;5.710;2022-10-18T00:55:09;19.70;;;11.18;;
45338;SDS011;31071;51.478;5.710;2022-10-18T00:57:35;26.55;;;11.40;;
45338;SDS011;31071;51.478;5.710;2022-10-18T01:00:03;22.58;;;10.70;;
45338;SDS011;31071;51.478;5.710;2022-10-18T01:02:33;22.38;;;10.10;;
45338;SDS011;31071;51.478;5.710;2022-10-18T01:05:00;23.50;;;11.25;;
45338;SDS011;31071;51.478;5.710;2022-10-18T01:18:20;19.42;;;10.90;;
45338;SDS011;31071;51.478;5.710;2022-10-18T01:21:17;19.85;;;10.15;;
45338;SDS011;31071;51.478;5.710;2022-10-18T01:32:17;25.77;;;11.18;;
45338;SDS011;31071;51.478;5.710;2022-10-18T01:34:49;27.85;;;11.32;;
45338;SDS011;31071;51.478;5.710;2022-10-18T01:37:16;22.90;;;11.55;;
45338;SDS011;31071;51.478;5.710;2022-10-18T01:39:46;22.98;;;11.02;;
45338;SDS011;31071;51.478;5.710;2022-10-18T01:42:15;24.13;;;10.77;;
45338;SDS011;31071;51.478;5.710;2022-10-18T01:44:44;33.70;;;11.07;;
45338;SDS011;31071;51.478;5.710;2022-10-18T01:47:11;19.40;;;10.45;;
45338;SDS011;31071;51.478;5.710;2022-10-18T01:49:38;24.92;;;10.52;;
45338;SDS011;31071;51.478;5.710;2022-10-18T01:52:04;20.67;;;11.13;;
45338;SDS011;31071;51.478;5.710;2022-10-18T01:54:33;25.23;;;11.75;;
45338;SDS011;31071;51.478;5.710;2022-10-18T01:59:38;19.40;;;11.35;;
45338;SDS011;31071;51.478;5.710;2022-10-18T02:05:05;19.05;;;11.35;;
45338;SDS011;31071;51.478;5.710;2022-10-18T02:10:21;18.90;;;11.05;;
45338;SDS011;31071;51.478;5.710;2022-10-18T02:12:53;21.95;;;10.98;;
45338;SDS011;31071;51.478;5.710;2022-10-18T02:15:21;21.52;;;11.10;;
45338;SDS011;31071;51.478;5.710;2022-10-18T02:17:50;16.13;;;9.85;;
45338;SDS011;31071;51.478;5.710;2022-10-18T02:20:19;21.92;;;10.77;;
45338;SDS011;31071;51.478;5.710;2022-10-18T02:22:46;21.25;;;11.15;;
45338;SDS011;31071;51.478;5.710;2022-10-18T02:25:19;14.70;;;10.80;;
45338;SDS011;31071;51.478;5.710;2022-10-18T02:27:47;16.02;;;10.68;;
45338;SDS011;31071;51.478;5.710;2022-10-18T02:30:12;15.07;;;11.30;;
45338;SDS011;31071;51.478;5.710;2022-10-18T02:38:06;19.17;;;11.25;;
45338;SDS011;31071;51.478;5.710;2022-10-18T02:40:35;20.60;;;12.15;;
45338;SDS011;31071;51.478;5.710;2022-10-18T02:43:00;17.35;;;11.88;;
45338;SDS011;31071;51.478;5.710;2022-10-18T02:45:26;21.02;;;12.30;;
45338;SDS011;31071;51.478;5.710;2022-10-18T02:47:52;17.38;;;12.02;;
45338;SDS011;31071;51.478;5.710;2022-10-18T02:50:17;18.20;;;11.65;;
45338;SDS011;31071;51.478;5.710;2022-10-18T02:52:43;22.30;;;12.18;;
45338;SDS011;31071;51.478;5.710;2022-10-18T02:55:09;18.63;;;11.35;;
45338;SDS011;31071;51.478;5.710;2022-10-18T02:57:35;17.85;;;11.77;;
45338;SDS011;31071;51.478;5.710;2022-10-18T03:00:01;21.98;;;11.68;;
45338;SDS011;31071;51.478;5.710;2022-10-18T03:02:28;15.52;;;10.82;;
45338;SDS011;31071;51.478;5.710;2022-10-18T03:04:54;16.88;;;11.55;;
45338;SDS011;31071;51.478;5.710;2022-10-18T03:07:20;23.15;;;11.38;;
45338;SDS011;31071;51.478;5.710;2022-10-18T03:09:45;17.92;;;11.30;;
45338;SDS011;31071;51.478;5.710;2022-10-18T03:12:11;17.98;;;11.63;;
45338;SDS011;31071;51.478;5.710;2022-10-18T03:14:36;17.75;;;11.90;;
45338;SDS011;31071;51.478;5.710;2022-10-18T03:17:02;25.08;;;12.30;;
45338;SDS011;31071;51.478;5.710;2022-10-18T03:19:27;22.25;;;12.23;;
45338;SDS011;31071;51.478;5.710;2022-10-18T03:21:53;17.67;;;11.95;;
45338;SDS011;31071;51.478;5.710;2022-10-18T03:24:18;21.23;;;13.82;;
45338;SDS011;31071;51.478;5.710;2022-10-18T03:26:44;24.50;;;14.73;;
45338;SDS011;31071;51.478;5.710;2022-10-18T03:29:09;21.95;;;13.85;;
45338;SDS011;31071;51.478;5.710;2022-10-18T03:31:35;19.30;;;14.98;;
45338;SDS011;31071;51.478;5.710;2022-10-18T03:34:01;26.25;;;15.00;;
45338;SDS011;31071;51.478;5.710;2022-10-18T03:36:26;22.05;;;16.35;;
45338;SDS011;31071;51.478;5.710;2022-10-18T03:38:52;22.63;;;16.65;;
45338;SDS011;31071;51.478;5.710;2022-10-18T03:41:18;29.55;;;16.77;;
45338;SDS011;31071;51.478;5.710;2022-10-18T03:43:44;25.70;;;16.20;;
45338;SDS011;31071;51.478;5.710;2022-10-18T03:46:10;29.65;;;17.15;;
45338;SDS011;31071;51.478;5.710;2022-10-18T03:48:37;28.15;;;15.95;;
45338;SDS011;31071;51.478;5.710;2022-10-18T03:51:02;23.75;;;15.80;;
45338;SDS011;31071;51.478;5.710;2022-10-18T03:53:28;34.50;;;18.73;;
45338;SDS011;31071;51.478;5.710;2022-10-18T03:55:54;23.50;;;16.73;;
45338;SDS011;31071;51.478;5.710;2022-10-18T03:58:20;27.17;;;18.08;;
45338;SDS011;31071;51.478;5.710;2022-10-18T04:00:52;27.90;;;18.13;;
45338;SDS011;31071;51.478;5.710;2022-10-18T04:03:19;27.85;;;18.42;;
45338;SDS011;31071;51.478;5.710;2022-10-18T04:05:46;32.15;;;19.88;;
45338;SDS011;31071;51.478;5.710;2022-10-18T04:08:20;27.30;;;20.10;;
45338;SDS011;31071;51.478;5.710;2022-10-18T04:10:46;30.17;;;20.52;;
45338;SDS011;31071;51.478;5.710;2022-10-18T04:13:12;34.42;;;22.02;;
45338;SDS011;31071;51.478;5.710;2022-10-18T04:15:37;32.40;;;20.67;;
45338;SDS011;31071;51.478;5.710;2022-10-18T04:18:03;32.75;;;20.85;;
45338;SDS011;31071;51.478;5.710;2022-10-18T04:20:29;35.50;;;21.70;;
45338;SDS011;31071;51.478;5.710;2022-10-18T04:22:54;34.83;;;21.92;;
45338;SDS011;31071;51.478;5.710;2022-10-18T04:25:21;34.08;;;21.17;;
45338;SDS011;31071;51.478;5.710;2022-10-18T04:27:47;33.35;;;20.65;;
45338;SDS011;31071;51.478;5.710;2022-10-18T04:30:13;30.90;;;20.75;;
45338;SDS011;31071;51.478;5.710;2022-10-18T04:32:39;32.30;;;22.13;;
45338;SDS011;31071;51.478;5.710;2022-10-18T04:35:05;31.45;;;21.83;;
45338;SDS011;31071;51.478;5.710;2022-10-18T04:37:31;38.00;;;22.00;;
45338;SDS011;31071;51.478;5.710;2022-10-18T04:39:57;37.08;;;22.33;;
45338;SDS011;31071;51.478;5.710;2022-10-18T04:42:23;35.55;;;21.60;;
45338;SDS011;31071;51.478;5.710;2022-10-18T04:44:49;35.22;;;21.20;;
45338;SDS011;31071;51.478;5.710;2022-10-18T04:47:15;34.55;;;21.38;;
45338;SDS011;31071;51.478;5.710;2022-10-18T04:49:40;33.95;;;22.30;;
45338;SDS011;31071;51.478;5.710;2022-10-18T04:52:06;37.05;;;22.05;;
45338;SDS011;31071;51.478;5.710;2022-10-18T04:54:32;35.97;;;23.42;;
45338;SDS011;31071;51.478;5.710;2022-10-18T04:56:57;34.63;;;21.38;;
45338;SDS011;31071;51.478;5.710;2022-10-18T04:59:23;35.85;;;22.30;;
45338;SDS011;31071;51.478;5.710;2022-10-18T05:01:48;33.45;;;22.58;;
45338;SDS011;31071;51.478;5.710;2022-10-18T05:04:14;33.15;;;22.65;;
45338;SDS011;31071;51.478;5.710;2022-10-18T05:06:39;37.33;;;22.98;;
45338;SDS011;31071;51.478;5.710;2022-10-18T05:09:05;37.28;;;21.63;;
45338;SDS011;31071;51.478;5.710;2022-10-18T05:11:30;33.58;;;22.33;;
45338;SDS011;31071;51.478;5.710;2022-10-18T05:13:56;37.38;;;22.55;;
45338;SDS011;31071;51.478;5.710;2022-10-18T05:16:21;34.20;;;23.05;;
45338;SDS011;31071;51.478;5.710;2022-10-18T05:18:47;38.28;;;24.83;;
45338;SDS011;31071;51.478;5.710;2022-10-18T05:21:13;55.47;;;28.05;;
45338;SDS011;31071;51.478;5.710;2022-10-18T05:23:38;51.97;;;28.40;;
45338;SDS011;31071;51.478;5.710;2022-10-18T05:26:04;49.53;;;28.25;;
45338;SDS011;31071;51.478;5.710;2022-10-18T05:28:37;58.90;;;29.50;;
45338;SDS011;31071;51.478;5.710;2022-10-18T05:31:03;109.00;;;31.88;;
45338;SDS011;31071;51.478;5.710;2022-10-18T05:33:30;86.18;;;27.38;;
45338;SDS011;31071;51.478;5.710;2022-10-18T05:35:56;138.82;;;32.95;;
45338;SDS011;31071;51.478;5.710;2022-10-18T05:38:22;100.90;;;31.55;;
45338;SDS011;31071;51.478;5.710;2022-10-18T05:40:47;88.93;;;31.75;;
45338;SDS011;31071;51.478;5.710;2022-10-18T05:43:13;114.68;;;31.85;;
45338;SDS011;31071;51.478;5.710;2022-10-18T05:45:38;133.98;;;32.38;;
45338;SDS011;31071;51.478;5.710;2022-10-18T05:48:04;116.72;;;34.92;;
45338;SDS011;31071;51.478;5.710;2022-10-18T05:50:31;78.72;;;33.13;;
45338;SDS011;31071;51.478;5.710;2022-10-18T05:52:57;63.83;;;32.67;;
45338;SDS011;31071;51.478;5.710;2022-10-18T05:55:23;69.70;;;31.77;;
45338;SDS011;31071;51.478;5.710;2022-10-18T05:57:49;86.15;;;32.78;;
45338;SDS011;31071;51.478;5.710;2022-10-18T06:00:15;63.42;;;31.63;;
45338;SDS011;31071;51.478;5.710;2022-10-18T06:02:41;71.95;;;32.47;;
45338;SDS011;31071;51.478;5.710;2022-10-18T06:05:07;64.88;;;31.60;;
45338;SDS011;31071;51.478;5.710;2022-10-18T06:07:32;48.92;;;30.55;;
45338;SDS011;31071;51.478;5.710;2022-10-18T06:09:58;57.90;;;32.05;;
45338;SDS011;31071;51.478;5.710;2022-10-18T06:12:23;76.43;;;34.13;;
45338;SDS011;31071;51.478;5.710;2022-10-18T06:14:49;91.35;;;32.45;;
45338;SDS011;31071;51.478;5.710;2022-10-18T06:17:14;68.25;;;31.75;;
45338;SDS011;31071;51.478;5.710;2022-10-18T06:19:40;94.32;;;34.25;;
45338;SDS011;31071;51.478;5.710;2022-10-18T06:22:08;160.77;;;35.42;;
45338;SDS011;31071;51.478;5.710;2022-10-18T06:24:34;87.53;;;34.38;;
45338;SDS011;31071;51.478;5.710;2022-10-18T06:26:59;202.68;;;37.58;;
45338;SDS011;31071;51.478;5.710;2022-10-18T06:29:31;78.68;;;33.90;;
45338;SDS011;31071;51.478;5.710;2022-10-18T06:31:57;128.90;;;35.55;;
45338;SDS011;31071;51.478;5.710;2022-10-18T06:34:22;109.80;;;34.45;;
45338;SDS011;31071;51.478;5.710;2022-10-18T06:36:47;62.45;;;32.83;;
45338;SDS011;31071;51.478;5.710;2022-10-18T06:39:13;99.03;;;33.28;;
45338;SDS011;31071;51.478;5.710;2022-10-18T06:41:38;84.93;;;33.75;;
45338;SDS011;31071;51.478;5.710;2022-10-18T06:44:04;116.05;;;33.92;;
45338;SDS011;31071;51.478;5.710;2022-10-18T06:49:03;90.47;;;32.80;;
45338;SDS011;31071;51.478;5.710;2022-10-18T06:51:29;78.53;;;32.15;;
45338;SDS011;31071;51.478;5.710;2022-10-18T06:53:54;74.40;;;34.03;;
45338;SDS011;31071;51.478;5.710;2022-10-18T06:56:20;99.18;;;35.13;;
45338;SDS011;31071;51.478;5.710;2022-10-18T06:58:51;142.30;;;37.63;;
45338;SDS011;31071;51.478;5.710;2022-10-18T07:01:17;66.35;;;33.75;;
45338;SDS011;31071;51.478;5.710;2022-10-18T07:03:44;62.25;;;34.28;;
45338;SDS011;31071;51.478;5.710;2022-10-18T07:06:11;87.55;;;32.67;;
45338;SDS011;31071;51.478;5.710;2022-10-18T07:08:38;121.10;;;33.95;;
45338;SDS011;31071;51.478;5.710;2022-10-18T07:11:04;52.67;;;30.85;;
45338;SDS011;31071;51.478;5.710;2022-10-18T07:13:31;81.80;;;32.38;;
45338;SDS011;31071;51.478;5.710;2022-10-18T07:16:07;93.88;;;32.97;;
45338;SDS011;31071;51.478;5.710;2022-10-18T07:18:40;108.97;;;32.13;;
45338;SDS011;31071;51.478;5.710;2022-10-18T07:21:09;111.43;;;34.10;;
45338;SDS011;31071;51.478;5.710;2022-10-18T07:23:37;139.45;;;37.42;;
45338;SDS011;31071;51.478;5.710;2022-10-18T07:26:15;160.27;;;34.63;;
45338;SDS011;31071;51.478;5.710;2022-10-18T07:28:41;82.63;;;32.80;;
45338;SDS011;31071;51.478;5.710;2022-10-18T07:31:07;78.43;;;33.03;;
45338;SDS011;31071;51.478;5.710;2022-10-18T07:33:36;124.25;;;35.35;;
45338;SDS011;31071;51.478;5.710;2022-10-18T07:36:06;141.68;;;36.10;;
45338;SDS011;31071;51.478;5.710;2022-10-18T07:38:33;80.95;;;33.00;;
45338;SDS011;31071;51.478;5.710;2022-10-18T07:40:59;100.10;;;33.65;;
45338;SDS011;31071;51.478;5.710;2022-10-18T07:43:26;88.57;;;33.42;;
45338;SDS011;31071;51.478;5.710;2022-10-18T07:45:59;58.35;;;30.67;;
45338;SDS011;31071;51.478;5.710;2022-10-18T07:48:26;93.97;;;29.02;;
45338;SDS011;31071;51.478;5.710;2022-10-18T07:50:52;82.57;;;29.17;;
45338;SDS011;31071;51.478;5.710;2022-10-18T07:53:18;65.63;;;29.90;;
45338;SDS011;31071;51.478;5.710;2022-10-18T07:55:44;102.28;;;29.67;;
45338;SDS011;31071;51.478;5.710;2022-10-18T07:58:20;62.03;;;30.30;;
45338;SDS011;31071;51.478;5.710;2022-10-18T08:00:46;49.30;;;29.52;;
45338;SDS011;31071;51.478;5.710;2022-10-18T08:03:11;60.10;;;30.73;;
45338;SDS011;31071;51.478;5.710;2022-10-18T08:05:37;58.38;;;30.52;;
45338;SDS011;31071;51.478;5.710;2022-10-18T08:08:11;72.65;;;29.60;;
45338;SDS011;31071;51.478;5.710;2022-10-18T08:10:36;57.75;;;29.85;;
45338;SDS011;31071;51.478;5.710;2022-10-18T08:13:02;61.58;;;30.08;;
45338;SDS011;31071;51.478;5.710;2022-10-18T08:15:27;55.30;;;31.67;;
45338;SDS011;31071;51.478;5.710;2022-10-18T08:17:53;50.70;;;30.63;;
45338;SDS011;31071;51.478;5.710;2022-10-18T08:20:18;52.22;;;31.33;;
45338;SDS011;31071;51.478;5.710;2022-10-18T08:22:44;54.28;;;31.83;;
45338;SDS011;31071;51.478;5.710;2022-10-18T08:25:09;53.25;;;31.77;;
45338;SDS011;31071;51.478;5.710;2022-10-18T08:27:35;49.42;;;30.38;;
45338;SDS011;31071;51.478;5.710;2022-10-18T08:30:00;53.00;;;31.73;;
45338;SDS011;31071;51.478;5.710;2022-10-18T08:32:26;58.47;;;34.35;;
45338;SDS011;31071;51.478;5.710;2022-10-18T08:34:52;57.83;;;33.53;;
45338;SDS011;31071;51.478;5.710;2022-10-18T08:37:18;58.10;;;33.97;;
45338;SDS011;31071;51.478;5.710;2022-10-18T08:39:44;63.17;;;36.53;;
45338;SDS011;31071;51.478;5.710;2022-10-18T08:45:09;56.75;;;34.65;;
45338;SDS011;31071;51.478;5.710;2022-10-18T08:47:40;59.50;;;34.30;;
45338;SDS011;31071;51.478;5.710;2022-10-18T08:53:14;58.08;;;33.58;;
45338;SDS011;31071;51.478;5.710;2022-10-18T08:55:44;49.90;;;32.95;;
45338;SDS011;31071;51.478;5.710;2022-10-18T08:58:19;51.60;;;33.22;;
45338;SDS011;31071;51.478;5.710;2022-10-18T09:07:11;46.65;;;30.20;;
45338;SDS011;31071;51.478;5.710;2022-10-18T09:09:33;47.08;;;28.92;;
45338;SDS011;31071;51.478;5.710;2022-10-18T09:14:59;53.88;;;28.60;;
45338;SDS011;31071;51.478;5.710;2022-10-18T09:22:53;45.15;;;32.45;;
45338;SDS011;31071;51.478;5.710;2022-10-18T09:25:43;50.42;;;33.08;;
45338;SDS011;31071;51.478;5.710;2022-10-18T09:31:12;55.25;;;35.10;;
45338;SDS011;31071;51.478;5.710;2022-10-18T09:36:23;62.88;;;36.97;;
45338;SDS011;31071;51.478;5.710;2022-10-18T09:38:55;63.40;;;36.78;;
45338;SDS011;31071;51.478;5.710;2022-10-18T09:44:00;58.33;;;36.90;;
45338;SDS011;31071;51.478;5.710;2022-10-18T09:46:54;55.72;;;36.67;;
45338;SDS011;31071;51.478;5.710;2022-10-18T09:49:42;55.08;;;35.50;;
45338;SDS011;31071;51.478;5.710;2022-10-18T09:53:12;47.38;;;32.53;;
45338;SDS011;31071;51.478;5.710;2022-10-18T09:55:16;46.72;;;30.67;;
45338;SDS011;31071;51.478;5.710;2022-10-18T09:57:50;43.17;;;28.38;;
45338;SDS011;31071;51.478;5.710;2022-10-18T10:05:40;41.25;;;27.60;;
45338;SDS011;31071;51.478;5.710;2022-10-18T10:08:06;37.85;;;27.13;;
45338;SDS011;31071;51.478;5.710;2022-10-18T10:10:32;40.40;;;26.63;;
45338;SDS011;31071;51.478;5.710;2022-10-18T10:13:18;35.25;;;25.70;;
45338;SDS011;31071;51.478;5.710;2022-10-18T10:15:59;34.58;;;23.80;;
45338;SDS011;31071;51.478;5.710;2022-10-18T10:18:30;32.92;;;23.65;;
45338;SDS011;31071;51.478;5.710;2022-10-18T10:21:02;27.33;;;20.70;;
45338;SDS011;31071;51.478;5.710;2022-10-18T10:26:32;27.50;;;20.30;;
45338;SDS011;31071;51.478;5.710;2022-10-18T10:32:26;38.08;;;22.92;;
45338;SDS011;31071;51.478;5.710;2022-10-18T10:37:52;35.30;;;24.40;;
45338;SDS011;31071;51.478;5.710;2022-10-18T10:40:20;34.92;;;24.10;;
45338;SDS011;31071;51.478;5.710;2022-10-18T10:45:28;34.70;;;24.60;;
45338;SDS011;31071;51.478;5.710;2022-10-18T10:48:14;41.65;;;28.73;;
45338;SDS011;31071;51.478;5.710;2022-10-18T10:50:49;28.98;;;23.50;;
45338;SDS011;31071;51.478;5.710;2022-10-18T10:59:26;33.72;;;23.25;;
45338;SDS011;31071;51.478;5.710;2022-10-18T11:04:41;36.45;;;23.80;;
45338;SDS011;31071;51.478;5.710;2022-10-18T11:12:55;31.77;;;17.58;;
45338;SDS011;31071;51.478;5.710;2022-10-18T11:15:05;28.30;;;15.70;;
45338;SDS011;31071;51.478;5.710;2022-10-18T11:17:41;28.02;;;15.80;;
45338;SDS011;31071;51.478;5.710;2022-10-18T11:20:20;25.65;;;16.42;;
45338;SDS011;31071;51.478;5.710;2022-10-18T11:25:47;25.67;;;15.05;;
45338;SDS011;31071;51.478;5.710;2022-10-18T11:45:36;21.42;;;9.13;;
45338;SDS011;31071;51.478;5.710;2022-10-18T11:51:20;15.40;;;10.05;;
45338;SDS011;31071;51.478;5.710;2022-10-18T11:56:52;20.40;;;10.15;;
45338;SDS011;31071;51.478;5.710;2022-10-18T12:05:03;20.90;;;8.57;;
45338;SDS011;31071;51.478;5.710;2022-10-18T12:07:31;19.63;;;8.73;;
45338;SDS011;31071;51.478;5.710;2022-10-18T12:10:08;15.38;;;7.18;;
45338;SDS011;31071;51.478;5.710;2022-10-18T12:12:41;19.20;;;7.20;;
45338;SDS011;31071;51.478;5.710;2022-10-18T12:15:21;17.48;;;7.07;;
45338;SDS011;31071;51.478;5.710;2022-10-18T12:17:49;16.17;;;6.60;;
45338;SDS011;31071;51.478;5.710;2022-10-18T12:20:20;18.67;;;7.43;;
45338;SDS011;31071;51.478;5.710;2022-10-18T12:25:39;16.45;;;6.97;;
45338;SDS011;31071;51.478;5.710;2022-10-18T12:28:12;21.08;;;6.63;;
45338;SDS011;31071;51.478;5.710;2022-10-18T12:30:54;21.98;;;6.43;;
45338;SDS011;31071;51.478;5.710;2022-10-18T12:33:44;15.38;;;6.80;;
45338;SDS011;31071;51.478;5.710;2022-10-18T12:38:52;17.92;;;6.78;;
45338;SDS011;31071;51.478;5.710;2022-10-18T12:41:27;16.65;;;7.00;;
45338;SDS011;31071;51.478;5.710;2022-10-18T12:44:04;15.10;;;6.22;;
45338;SDS011;31071;51.478;5.710;2022-10-18T12:46:45;16.98;;;5.18;;
45338;SDS011;31071;51.478;5.710;2022-10-18T12:51:59;16.23;;;4.22;;
45338;SDS011;31071;51.478;5.710;2022-10-18T12:54:34;14.27;;;3.45;;
45338;SDS011;31071;51.478;5.710;2022-10-18T12:57:03;17.13;;;4.32;;
45338;SDS011;31071;51.478;5.710;2022-10-18T13:09:39;13.55;;;3.70;;
45338;SDS011;31071;51.478;5.710;2022-10-18T13:17:39;13.38;;;3.20;;
45338;SDS011;31071;51.478;5.710;2022-10-18T13:20:18;10.65;;;3.63;;
45338;SDS011;31071;51.478;5.710;2022-10-18T13:22:57;11.63;;;2.90;;
45338;SDS011;31071;51.478;5.710;2022-10-18T13:26:02;12.73;;;2.92;;
45338;SDS011;31071;51.478;5.710;2022-10-18T13:28:37;11.38;;;2.90;;
45338;SDS011;31071;51.478;5.710;2022-10-18T13:34:29;9.10;;;2.80;;
45338;SDS011;31071;51.478;5.710;2022-10-18T13:36:59;12.65;;;3.60;;
45338;SDS011;31071;51.478;5.710;2022-10-18T13:39:29;13.82;;;4.32;;
45338;SDS011;31071;51.478;5.710;2022-10-18T13:44:28;11.98;;;3.72;;
45338;SDS011;31071;51.478;5.710;2022-10-18T14:06:14;13.13;;;2.80;;
45338;SDS011;31071;51.478;5.710;2022-10-18T14:11:36;15.85;;;3.58;;
45338;SDS011;31071;51.478;5.710;2022-10-18T14:14:13;11.65;;;2.95;;
45338;SDS011;31071;51.478;5.710;2022-10-18T14:17:02;11.88;;;2.50;;
45338;SDS011;31071;51.478;5.710;2022-10-18T14:22:39;9.88;;;2.17;;
45338;SDS011;31071;51.478;5.710;2022-10-18T14:25:30;9.38;;;2.20;;
45338;SDS011;31071;51.478;5.710;2022-10-18T14:28:12;11.93;;;1.88;;
45338;SDS011;31071;51.478;5.710;2022-10-18T14:33:26;10.30;;;1.92;;
45338;SDS011;31071;51.478;5.710;2022-10-18T14:36:41;7.68;;;1.98;;
45338;SDS011;31071;51.478;5.710;2022-10-18T14:38:50;11.75;;;2.40;;
45338;SDS011;31071;51.478;5.710;2022-10-18T14:43:47;6.20;;;1.58;;
45338;SDS011;31071;51.478;5.710;2022-10-18T14:49:00;14.13;;;2.45;;
45338;SDS011;31071;51.478;5.710;2022-10-18T14:51:29;11.30;;;2.20;;
45338;SDS011;31071;51.478;5.710;2022-10-18T14:53:57;9.60;;;2.25;;
45338;SDS011;31071;51.478;5.710;2022-10-18T14:58:57;12.55;;;2.38;;
45338;SDS011;31071;51.478;5.710;2022-10-18T15:01:32;9.43;;;1.83;;
45338;SDS011;31071;51.478;5.710;2022-10-18T15:04:01;12.60;;;1.92;;
45338;SDS011;31071;51.478;5.710;2022-10-18T15:06:32;11.23;;;1.90;;
45338;SDS011;31071;51.478;5.710;2022-10-18T15:08:58;9.88;;;1.60;;
45338;SDS011;31071;51.478;5.710;2022-10-18T15:11:28;13.45;;;2.95;;
45338;SDS011;31071;51.478;5.710;2022-10-18T15:13:55;19.58;;;2.75;;
45338;SDS011;31071;51.478;5.710;2022-10-18T15:16:24;10.25;;;1.85;;
45338;SDS011;31071;51.478;5.710;2022-10-18T15:18:58;13.68;;;2.40;;
45338;SDS011;31071;51.478;5.710;2022-10-18T15:21:33;16.77;;;2.33;;
45338;SDS011;31071;51.478;5.710;2022-10-18T15:27:17;16.45;;;1.95;;
45338;SDS011;31071;51.478;5.710;2022-10-18T15:29:48;10.65;;;1.92;;
45338;SDS011;31071;51.478;5.710;2022-10-18T15:32:15;16.77;;;2.40;;
45338;SDS011;31071;51.478;5.710;2022-10-18T15:34:53;19.42;;;2.03;;
45338;SDS011;31071;51.478;5.710;2022-10-18T15:37:29;18.40;;;2.33;;
45338;SDS011;31071;51.478;5.710;2022-10-18T15:40:15;11.55;;;1.70;;
45338;SDS011;31071;51.478;5.710;2022-10-18T15:42:54;13.43;;;2.22;;
45338;SDS011;31071;51.478;5.710;2022-10-18T15:48:13;13.57;;;2.03;;
45338;SDS011;31071;51.478;5.710;2022-10-18T15:50:55;16.23;;;2.33;;
45338;SDS011;31071;51.478;5.710;2022-10-18T15:56:32;15.32;;;2.70;;
45338;SDS011;31071;51.478;5.710;2022-10-18T15:59:00;10.82;;;1.73;;
45338;SDS011;31071;51.478;5.710;2022-10-18T16:04:03;14.13;;;2.15;;
45338;SDS011;31071;51.478;5.710;2022-10-18T16:06:31;11.27;;;1.58;;
45338;SDS011;31071;51.478;5.710;2022-10-18T16:09:01;16.33;;;2.20;;
45338;SDS011;31071;51.478;5.710;2022-10-18T16:11:26;12.23;;;1.60;;
45338;SDS011;31071;51.478;5.710;2022-10-18T16:13:53;11.85;;;1.92;;
45338;SDS011;31071;51.478;5.710;2022-10-18T16:16:21;11.52;;;1.42;;
45338;SDS011;31071;51.478;5.710;2022-10-18T16:18:48;7.97;;;1.60;;
45338;SDS011;31071;51.478;5.710;2022-10-18T16:23:46;9.07;;;1.83;;
45338;SDS011;31071;51.478;5.710;2022-10-18T16:26:12;11.98;;;1.83;;
45338;SDS011;31071;51.478;5.710;2022-10-18T16:28:38;13.63;;;2.17;;
45338;SDS011;31071;51.478;5.710;2022-10-18T16:31:04;12.55;;;1.70;;
45338;SDS011;31071;51.478;5.710;2022-10-18T16:33:30;12.02;;;2.10;;
45338;SDS011;31071;51.478;5.710;2022-10-18T16:35:56;9.18;;;1.85;;
45338;SDS011;31071;51.478;5.710;2022-10-18T16:38:32;10.50;;;1.67;;
45338;SDS011;31071;51.478;5.710;2022-10-18T16:40:59;7.68;;;1.80;;
45338;SDS011;31071;51.478;5.710;2022-10-18T16:43:25;17.42;;;2.70;;
45338;SDS011;31071;51.478;5.710;2022-10-18T16:45:51;11.27;;;1.63;;
45338;SDS011;31071;51.478;5.710;2022-10-18T16:48:19;12.10;;;1.90;;
45338;SDS011;31071;51.478;5.710;2022-10-18T16:50:46;16.73;;;1.77;;
45338;SDS011;31071;51.478;5.710;2022-10-18T16:53:13;9.50;;;1.92;;
45338;SDS011;31071;51.478;5.710;2022-10-18T16:55:39;12.30;;;1.98;;
45338;SDS011;31071;51.478;5.710;2022-10-18T16:58:06;8.07;;;1.75;;
45338;SDS011;31071;51.478;5.710;2022-10-18T17:00:37;15.38;;;1.80;;
45338;SDS011;31071;51.478;5.710;2022-10-18T17:03:10;18.08;;;3.30;;
45338;SDS011;31071;51.478;5.710;2022-10-18T17:05:36;10.80;;;2.03;;
45338;SDS011;31071;51.478;5.710;2022-10-18T17:08:01;5.85;;;1.83;;
45338;SDS011;31071;51.478;5.710;2022-10-18T17:10:27;13.45;;;1.88;;
45338;SDS011;31071;51.478;5.710;2022-10-18T17:12:55;12.95;;;1.98;;
45338;SDS011;31071;51.478;5.710;2022-10-18T17:15:21;13.70;;;1.85;;
45338;SDS011;31071;51.478;5.710;2022-10-18T17:17:46;13.18;;;1.75;;
45338;SDS011;31071;51.478;5.710;2022-10-18T17:20:23;18.48;;;1.70;;
45338;SDS011;31071;51.478;5.710;2022-10-18T17:22:50;11.98;;;1.70;;
45338;SDS011;31071;51.478;5.710;2022-10-18T17:25:16;17.75;;;1.70;;
45338;SDS011;31071;51.478;5.710;2022-10-18T17:27:43;9.98;;;1.70;;
45338;SDS011;31071;51.478;5.710;2022-10-18T17:30:09;8.73;;;1.50;;
45338;SDS011;31071;51.478;5.710;2022-10-18T17:32:37;13.02;;;1.55;;
45338;SDS011;31071;51.478;5.710;2022-10-18T17:35:02;8.63;;;1.65;;
45338;SDS011;31071;51.478;5.710;2022-10-18T17:37:28;9.63;;;1.70;;
45338;SDS011;31071;51.478;5.710;2022-10-18T17:39:54;9.50;;;1.55;;
45338;SDS011;31071;51.478;5.710;2022-10-18T17:42:20;11.57;;;1.80;;
45338;SDS011;31071;51.478;5.710;2022-10-18T17:44:46;9.77;;;1.63;;
45338;SDS011;31071;51.478;5.710;2022-10-18T17:47:11;10.52;;;1.75;;
45338;SDS011;31071;51.478;5.710;2022-10-18T17:49:37;10.23;;;1.88;;
45338;SDS011;31071;51.478;5.710;2022-10-18T17:52:03;17.73;;;2.33;;
45338;SDS011;31071;51.478;5.710;2022-10-18T17:54:29;10.15;;;1.52;;
45338;SDS011;31071;51.478;5.710;2022-10-18T17:56:54;7.10;;;1.80;;
45338;SDS011;31071;51.478;5.710;2022-10-18T17:59:20;10.82;;;1.77;;
45338;SDS011;31071;51.478;5.710;2022-10-18T18:01:46;16.88;;;1.90;;
45338;SDS011;31071;51.478;5.710;2022-10-18T18:04:12;11.20;;;1.88;;